sensor_id;sensor_type;location;lat;lon;timestamp;P1;durP1;ratioP1;P2;durP2;ratioP2
5878;SDS011;2965;42.640;23.370;2023-06-14T04:02:24;8.13;;;7.53;;
5878;SDS011;2965;42.640;23.370;2023-06-14T04:04:50;10.73;;;8.23;;
5878;SDS011;2965;42.640;23.370;2023-06-14T04:07:17;8.90;;;8.00;;
5878;SDS011;2965;42.640;23.370;2023-06-14T04:09:46;13.63;;;7.83;;
5878;SDS011;2965;42.640;23.370;2023-06-14T04:12:12;8.70;;;8.00;;
5878;SDS011;2965;42.640;23.370;2023-06-14T04:14:38;6.73;;;6.27;;
5878;SDS011;2965;42.640;23.370;2023-06-14T04:17:04;8.90;;;8.00;;
5878;SDS011;2965;42.640;23.370;2023-06-14T04:19:30;8.60;;;7.30;;
5878;SDS011;2965;42.640;23.370;2023-06-14T04:21:55;6.90;;;6.50;;
5878;SDS011;2965;42.640;23.370;2023-06-14T04:24:21;13.17;;;8.20;;
5878;SDS011;2965;42.640;23.370;2023-06-14T04:26:48;13.40;;;8.37;;
5878;SDS011;2965;42.640;23.370;2023-06-14T04:29:14;10.10;;;8.30;;
5878;SDS011;2965;42.640;23.370;2023-06-14T04:31:41;10.10;;;9.13;;
5878;SDS011;2965;42.640;23.370;2023-06-14T04:34:10;9.67;;;8.77;;
5878;SDS011;2965;42.640;23.370;2023-06-14T04:36:40;12.33;;;9.97;;
5878;SDS011;2965;42.640;23.370;2023-06-14T04:39:08;11.80;;;8.73;;
5878;SDS011;2965;42.640;23.370;2023-06-14T04:41:33;12.00;;;8.90;;
5878;SDS011;2965;42.640;23.370;2023-06-14T04:44:00;9.77;;;8.83;;
5878;SDS011;2965;42.640;23.370;2023-06-14T04:46:28;15.30;;;9.00;;
5878;SDS011;2965;42.640;23.370;2023-06-14T04:48:55;12.00;;;9.53;;
5878;SDS011;2965;42.640;23.370;2023-06-14T04:51:21;15.50;;;9.43;;
5878;SDS011;2965;42.640;23.370;2023-06-14T04:53:54;9.57;;;8.77;;
5878;SDS011;2965;42.640;23.370;2023-06-14T04:56:23;10.60;;;9.40;;
5878;SDS011;2965;42.640;23.370;2023-06-14T04:58:51;11.37;;;9.27;;
5878;SDS011;2965;42.640;23.370;2023-06-14T05:01:18;11.93;;;8.80;;
5878;SDS011;2965;42.640;23.370;2023-06-14T05:03:44;11.40;;;9.90;;
5878;SDS011;2965;42.640;23.370;2023-06-14T05:06:13;13.90;;;9.40;;
5878;SDS011;2965;42.640;23.370;2023-06-14T05:08:39;16.23;;;10.67;;
5878;SDS011;2965;42.640;23.370;2023-06-14T05:11:04;13.73;;;9.33;;
5878;SDS011;2965;42.640;23.370;2023-06-14T05:13:30;11.30;;;10.10;;
5878;SDS011;2965;42.640;23.370;2023-06-14T05:15:57;12.60;;;10.30;;
5878;SDS011;2965;42.640;23.370;2023-06-14T05:18:24;14.57;;;11.10;;
5878;SDS011;2965;42.640;23.370;2023-06-14T05:20:50;15.87;;;11.00;;
5878;SDS011;2965;42.640;23.370;2023-06-14T05:23:15;15.33;;;11.73;;
5878;SDS011;2965;42.640;23.370;2023-06-14T05:25:42;19.00;;;12.50;;
5878;SDS011;2965;42.640;23.370;2023-06-14T05:28:08;14.73;;;11.80;;
5878;SDS011;2965;42.640;23.370;2023-06-14T05:30:33;28.77;;;14.97;;
5878;SDS011;2965;42.640;23.370;2023-06-14T05:32:59;22.67;;;15.77;;
5878;SDS011;2965;42.640;23.370;2023-06-14T05:35:24;21.67;;;15.00;;
5878;SDS011;2965;42.640;23.370;2023-06-14T05:37:51;25.90;;;15.60;;
5878;SDS011;2965;42.640;23.370;2023-06-14T05:40:17;26.57;;;17.63;;
5878;SDS011;2965;42.640;23.370;2023-06-14T05:42:43;23.70;;;16.07;;
5878;SDS011;2965;42.640;23.370;2023-06-14T05:45:09;29.87;;;16.47;;
5878;SDS011;2965;42.640;23.370;2023-06-14T05:47:34;23.10;;;15.60;;
5878;SDS011;2965;42.640;23.370;2023-06-14T05:50:00;25.90;;;15.80;;
5878;SDS011;2965;42.640;23.370;2023-06-14T05:52:25;24.03;;;16.03;;
5878;SDS011;2965;42.640;23.370;2023-06-14T05:54:51;22.03;;;16.63;;
5878;SDS011;2965;42.640;23.370;2023-06-14T05:57:17;20.17;;;13.63;;
5878;SDS011;2965;42.640;23.370;2023-06-14T05:59:42;19.67;;;14.13;;
5878;SDS011;2965;42.640;23.370;2023-06-14T06:02:07;20.47;;;13.47;;
5878;SDS011;2965;42.640;23.370;2023-06-14T06:04:33;31.70;;;13.87;;
5878;SDS011;2965;42.640;23.370;2023-06-14T06:06:58;31.20;;;15.20;;
5878;SDS011;2965;42.640;23.370;2023-06-14T06:09:23;22.30;;;14.93;;
5878;SDS011;2965;42.640;23.370;2023-06-14T06:11:49;32.10;;;17.27;;
5878;SDS011;2965;42.640;23.370;2023-06-14T06:14:14;23.87;;;14.83;;
5878;SDS011;2965;42.640;23.370;2023-06-14T06:16:40;22.70;;;14.63;;
5878;SDS011;2965;42.640;23.370;2023-06-14T06:19:05;23.00;;;14.83;;
5878;SDS011;2965;42.640;23.370;2023-06-14T06:21:30;21.60;;;14.97;;
5878;SDS011;2965;42.640;23.370;2023-06-14T06:23:56;28.87;;;16.03;;
5878;SDS011;2965;42.640;23.370;2023-06-14T06:26:22;29.57;;;17.67;;
5878;SDS011;2965;42.640;23.370;2023-06-14T06:28:47;33.93;;;16.73;;
5878;SDS011;2965;42.640;23.370;2023-06-14T06:31:13;24.33;;;14.77;;
5878;SDS011;2965;42.640;23.370;2023-06-14T06:33:38;29.57;;;15.47;;
5878;SDS011;2965;42.640;23.370;2023-06-14T06:36:04;27.60;;;16.20;;
5878;SDS011;2965;42.640;23.370;2023-06-14T06:38:30;27.47;;;15.07;;
5878;SDS011;2965;42.640;23.370;2023-06-14T06:40:55;20.00;;;13.73;;
5878;SDS011;2965;42.640;23.370;2023-06-14T06:43:21;22.30;;;16.17;;
5878;SDS011;2965;42.640;23.370;2023-06-14T06:45:47;27.60;;;15.03;;
5878;SDS011;2965;42.640;23.370;2023-06-14T06:48:13;33.63;;;16.53;;
5878;SDS011;2965;42.640;23.370;2023-06-14T06:50:38;23.67;;;15.77;;
5878;SDS011;2965;42.640;23.370;2023-06-14T06:53:04;25.47;;;15.50;;
5878;SDS011;2965;42.640;23.370;2023-06-14T06:55:30;29.27;;;17.63;;
5878;SDS011;2965;42.640;23.370;2023-06-14T06:57:55;33.43;;;17.20;;
5878;SDS011;2965;42.640;23.370;2023-06-14T10:34:56;14.20;;;11.97;;
5878;SDS011;2965;42.640;23.370;2023-06-14T10:37:23;13.33;;;11.80;;
5878;SDS011;2965;42.640;23.370;2023-06-14T10:39:52;11.97;;;10.87;;
5878;SDS011;2965;42.640;23.370;2023-06-14T10:42:20;13.97;;;11.27;;
5878;SDS011;2965;42.640;23.370;2023-06-14T10:44:54;13.23;;;11.73;;
5878;SDS011;2965;42.640;23.370;2023-06-14T10:50:04;12.63;;;10.10;;
5878;SDS011;2965;42.640;23.370;2023-06-14T10:52:42;11.60;;;10.50;;
5878;SDS011;2965;42.640;23.370;2023-06-14T10:57:43;12.23;;;11.13;;
5878;SDS011;2965;42.640;23.370;2023-06-14T11:00:11;12.07;;;10.87;;
5878;SDS011;2965;42.640;23.370;2023-06-14T11:02:49;14.40;;;10.00;;
5878;SDS011;2965;42.640;23.370;2023-06-14T11:05:26;12.27;;;11.03;;
5878;SDS011;2965;42.640;23.370;2023-06-14T11:10:44;11.47;;;10.50;;
5878;SDS011;2965;42.640;23.370;2023-06-14T11:13:12;10.40;;;9.60;;
5878;SDS011;2965;42.640;23.370;2023-06-14T11:15:43;10.70;;;9.00;;
5878;SDS011;2965;42.640;23.370;2023-06-14T11:18:11;11.13;;;10.27;;
5878;SDS011;2965;42.640;23.370;2023-06-14T11:20:37;10.10;;;9.20;;
5878;SDS011;2965;42.640;23.370;2023-06-14T11:23:03;11.37;;;10.27;;
5878;SDS011;2965;42.640;23.370;2023-06-14T11:25:29;10.80;;;9.80;;
5878;SDS011;2965;42.640;23.370;2023-06-14T11:27:55;11.70;;;9.43;;
5878;SDS011;2965;42.640;23.370;2023-06-14T11:30:22;10.50;;;9.60;;
5878;SDS011;2965;42.640;23.370;2023-06-14T11:32:48;8.57;;;7.87;;
5878;SDS011;2965;42.640;23.370;2023-06-14T11:35:15;9.47;;;8.70;;
5878;SDS011;2965;42.640;23.370;2023-06-14T11:37:42;10.30;;;8.67;;
5878;SDS011;2965;42.640;23.370;2023-06-14T11:40:10;10.63;;;8.93;;
5878;SDS011;2965;42.640;23.370;2023-06-14T11:42:37;13.33;;;8.80;;
5878;SDS011;2965;42.640;23.370;2023-06-14T11:45:03;9.70;;;8.70;;
5878;SDS011;2965;42.640;23.370;2023-06-14T11:47:33;8.70;;;8.10;;
5878;SDS011;2965;42.640;23.370;2023-06-14T11:49:59;8.00;;;7.40;;
5878;SDS011;2965;42.640;23.370;2023-06-14T11:52:25;10.00;;;8.00;;
5878;SDS011;2965;42.640;23.370;2023-06-14T11:54:51;8.30;;;7.60;;
5878;SDS011;2965;42.640;23.370;2023-06-14T11:57:20;8.63;;;7.90;;
5878;SDS011;2965;42.640;23.370;2023-06-14T11:59:45;9.30;;;8.60;;
5878;SDS011;2965;42.640;23.370;2023-06-14T12:02:17;10.13;;;7.80;;
5878;SDS011;2965;42.640;23.370;2023-06-14T12:04:44;9.10;;;8.20;;
5878;SDS011;2965;42.640;23.370;2023-06-14T12:07:12;8.33;;;7.53;;
5878;SDS011;2965;42.640;23.370;2023-06-14T12:12:16;8.27;;;7.63;;
5878;SDS011;2965;42.640;23.370;2023-06-14T12:14:42;8.70;;;8.00;;
5878;SDS011;2965;42.640;23.370;2023-06-14T12:17:07;9.17;;;8.40;;
5878;SDS011;2965;42.640;23.370;2023-06-14T12:19:33;8.80;;;7.97;;
5878;SDS011;2965;42.640;23.370;2023-06-14T12:22:09;7.70;;;7.00;;
5878;SDS011;2965;42.640;23.370;2023-06-14T12:24:35;8.33;;;7.83;;
5878;SDS011;2965;42.640;23.370;2023-06-14T12:27:01;8.40;;;7.90;;
5878;SDS011;2965;42.640;23.370;2023-06-14T12:29:29;7.80;;;7.10;;
5878;SDS011;2965;42.640;23.370;2023-06-14T12:31:56;8.00;;;7.43;;
5878;SDS011;2965;42.640;23.370;2023-06-14T12:34:25;8.43;;;7.83;;
5878;SDS011;2965;42.640;23.370;2023-06-14T12:36:52;9.87;;;7.60;;
5878;SDS011;2965;42.640;23.370;2023-06-14T12:39:20;9.40;;;8.50;;
5878;SDS011;2965;42.640;23.370;2023-06-14T12:41:46;7.70;;;7.30;;
5878;SDS011;2965;42.640;23.370;2023-06-14T12:44:12;7.37;;;6.97;;
5878;SDS011;2965;42.640;23.370;2023-06-14T12:46:39;8.80;;;8.23;;
5878;SDS011;2965;42.640;23.370;2023-06-14T12:49:05;8.27;;;7.60;;
5878;SDS011;2965;42.640;23.370;2023-06-14T12:51:32;8.57;;;7.53;;
5878;SDS011;2965;42.640;23.370;2023-06-14T12:53:58;7.17;;;6.77;;
5878;SDS011;2965;42.640;23.370;2023-06-14T12:56:24;11.10;;;7.77;;
5878;SDS011;2965;42.640;23.370;2023-06-14T12:58:49;7.07;;;6.67;;
5878;SDS011;2965;42.640;23.370;2023-06-14T13:01:14;8.00;;;7.30;;
5878;SDS011;2965;42.640;23.370;2023-06-14T13:03:40;7.83;;;7.33;;
5878;SDS011;2965;42.640;23.370;2023-06-14T13:06:05;8.47;;;7.63;;
5878;SDS011;2965;42.640;23.370;2023-06-14T13:08:31;10.07;;;8.80;;
5878;SDS011;2965;42.640;23.370;2023-06-14T13:10:56;11.23;;;8.70;;
5878;SDS011;2965;42.640;23.370;2023-06-14T13:13:22;10.80;;;9.53;;
5878;SDS011;2965;42.640;23.370;2023-06-14T13:15:48;9.70;;;8.60;;
5878;SDS011;2965;42.640;23.370;2023-06-14T13:18:14;10.00;;;9.00;;
5878;SDS011;2965;42.640;23.370;2023-06-14T13:20:40;9.00;;;8.23;;
5878;SDS011;2965;42.640;23.370;2023-06-14T13:23:06;13.20;;;8.50;;
5878;SDS011;2965;42.640;23.370;2023-06-14T13:25:32;9.20;;;8.50;;
5878;SDS011;2965;42.640;23.370;2023-06-14T13:27:59;8.93;;;8.10;;
5878;SDS011;2965;42.640;23.370;2023-06-14T13:30:24;8.50;;;7.90;;
5878;SDS011;2965;42.640;23.370;2023-06-14T13:32:50;11.27;;;9.93;;
5878;SDS011;2965;42.640;23.370;2023-06-14T13:35:17;9.83;;;9.00;;
5878;SDS011;2965;42.640;23.370;2023-06-14T13:37:45;10.10;;;9.20;;
5878;SDS011;2965;42.640;23.370;2023-06-14T13:40:10;11.63;;;10.53;;
5878;SDS011;2965;42.640;23.370;2023-06-14T13:42:36;14.53;;;10.33;;
5878;SDS011;2965;42.640;23.370;2023-06-14T13:45:02;12.47;;;8.80;;
5878;SDS011;2965;42.640;23.370;2023-06-14T13:47:28;13.73;;;10.03;;
5878;SDS011;2965;42.640;23.370;2023-06-14T13:49:55;11.63;;;9.90;;
5878;SDS011;2965;42.640;23.370;2023-06-14T13:52:21;14.13;;;9.57;;
5878;SDS011;2965;42.640;23.370;2023-06-14T13:54:46;9.80;;;8.90;;
5878;SDS011;2965;42.640;23.370;2023-06-14T13:57:12;8.83;;;8.07;;
5878;SDS011;2965;42.640;23.370;2023-06-14T13:59:40;9.50;;;8.50;;
5878;SDS011;2965;42.640;23.370;2023-06-14T14:02:06;8.83;;;8.13;;
5878;SDS011;2965;42.640;23.370;2023-06-14T14:04:33;11.80;;;8.30;;
5878;SDS011;2965;42.640;23.370;2023-06-14T14:07:02;9.93;;;8.93;;
5878;SDS011;2965;42.640;23.370;2023-06-14T14:09:28;12.30;;;7.90;;
5878;SDS011;2965;42.640;23.370;2023-06-14T14:11:53;8.90;;;8.30;;
5878;SDS011;2965;42.640;23.370;2023-06-14T14:14:19;8.70;;;7.80;;
5878;SDS011;2965;42.640;23.370;2023-06-14T14:16:45;8.70;;;7.93;;
5878;SDS011;2965;42.640;23.370;2023-06-14T14:19:10;7.57;;;6.60;;
5878;SDS011;2965;42.640;23.370;2023-06-14T14:21:36;7.20;;;6.70;;
5878;SDS011;2965;42.640;23.370;2023-06-14T14:24:01;7.63;;;6.90;;
5878;SDS011;2965;42.640;23.370;2023-06-14T14:26:26;9.17;;;7.37;;
5878;SDS011;2965;42.640;23.370;2023-06-14T14:28:52;8.83;;;8.07;;
5878;SDS011;2965;42.640;23.370;2023-06-14T14:31:17;12.93;;;8.50;;
5878;SDS011;2965;42.640;23.370;2023-06-14T14:33:43;10.70;;;7.83;;
5878;SDS011;2965;42.640;23.370;2023-06-14T14:36:08;9.40;;;8.00;;
5878;SDS011;2965;42.640;23.370;2023-06-14T14:38:34;9.90;;;8.03;;
5878;SDS011;2965;42.640;23.370;2023-06-14T14:40:59;10.10;;;8.67;;
5878;SDS011;2965;42.640;23.370;2023-06-14T14:43:25;11.27;;;10.03;;
5878;SDS011;2965;42.640;23.370;2023-06-14T14:45:51;12.10;;;9.50;;
5878;SDS011;2965;42.640;23.370;2023-06-14T14:48:17;14.13;;;9.03;;
5878;SDS011;2965;42.640;23.370;2023-06-14T14:50:42;12.40;;;9.50;;
5878;SDS011;2965;42.640;23.370;2023-06-14T14:53:08;10.67;;;9.47;;
5878;SDS011;2965;42.640;23.370;2023-06-14T14:55:33;13.60;;;9.20;;
5878;SDS011;2965;42.640;23.370;2023-06-14T14:58:01;13.80;;;10.20;;
5878;SDS011;2965;42.640;23.370;2023-06-14T15:00:27;16.20;;;11.27;;
5878;SDS011;2965;42.640;23.370;2023-06-14T15:02:52;17.27;;;9.77;;
5878;SDS011;2965;42.640;23.370;2023-06-14T15:05:18;12.47;;;10.83;;
5878;SDS011;2965;42.640;23.370;2023-06-14T15:07:43;13.63;;;10.73;;
5878;SDS011;2965;42.640;23.370;2023-06-14T15:10:10;11.40;;;10.23;;
5878;SDS011;2965;42.640;23.370;2023-06-14T15:12:36;12.70;;;10.80;;
5878;SDS011;2965;42.640;23.370;2023-06-14T15:15:02;11.60;;;10.40;;
5878;SDS011;2965;42.640;23.370;2023-06-14T15:17:27;10.73;;;9.70;;
5878;SDS011;2965;42.640;23.370;2023-06-14T15:19:53;13.67;;;10.90;;
5878;SDS011;2965;42.640;23.370;2023-06-14T15:22:19;12.57;;;10.93;;
5878;SDS011;2965;42.640;23.370;2023-06-14T15:24:44;19.63;;;11.60;;
5878;SDS011;2965;42.640;23.370;2023-06-14T15:27:11;16.23;;;11.03;;
5878;SDS011;2965;42.640;23.370;2023-06-14T15:29:38;12.00;;;11.00;;
5878;SDS011;2965;42.640;23.370;2023-06-14T15:32:04;21.73;;;10.03;;
5878;SDS011;2965;42.640;23.370;2023-06-14T15:34:31;13.10;;;11.80;;
5878;SDS011;2965;42.640;23.370;2023-06-14T15:36:56;14.37;;;12.23;;
5878;SDS011;2965;42.640;23.370;2023-06-14T15:39:22;13.57;;;11.57;;
5878;SDS011;2965;42.640;23.370;2023-06-14T15:41:48;19.93;;;11.20;;
5878;SDS011;2965;42.640;23.370;2023-06-14T15:44:14;14.40;;;11.20;;
5878;SDS011;2965;42.640;23.370;2023-06-14T15:46:40;11.47;;;10.37;;
5878;SDS011;2965;42.640;23.370;2023-06-14T15:49:08;12.47;;;11.17;;
5878;SDS011;2965;42.640;23.370;2023-06-14T15:51:34;12.27;;;10.10;;
5878;SDS011;2965;42.640;23.370;2023-06-14T15:54:00;13.30;;;9.97;;
5878;SDS011;2965;42.640;23.370;2023-06-14T15:56:25;17.40;;;11.40;;
5878;SDS011;2965;42.640;23.370;2023-06-14T15:58:50;13.33;;;11.93;;
5878;SDS011;2965;42.640;23.370;2023-06-14T16:01:16;13.77;;;10.07;;
5878;SDS011;2965;42.640;23.370;2023-06-14T16:03:41;11.20;;;9.00;;
5878;SDS011;2965;42.640;23.370;2023-06-14T16:06:06;11.80;;;9.80;;
5878;SDS011;2965;42.640;23.370;2023-06-14T16:08:32;9.23;;;8.43;;
5878;SDS011;2965;42.640;23.370;2023-06-14T16:10:57;8.60;;;7.90;;
5878;SDS011;2965;42.640;23.370;2023-06-14T16:13:22;11.07;;;9.90;;
5878;SDS011;2965;42.640;23.370;2023-06-14T16:15:48;12.63;;;9.10;;
5878;SDS011;2965;42.640;23.370;2023-06-14T16:18:14;9.90;;;8.97;;
5878;SDS011;2965;42.640;23.370;2023-06-14T16:20:39;13.77;;;9.67;;
5878;SDS011;2965;42.640;23.370;2023-06-14T16:23:04;11.70;;;10.47;;
5878;SDS011;2965;42.640;23.370;2023-06-14T16:25:30;13.67;;;10.20;;
5878;SDS011;2965;42.640;23.370;2023-06-14T16:27:55;15.97;;;9.80;;
5878;SDS011;2965;42.640;23.370;2023-06-14T16:30:21;10.20;;;9.30;;
5878;SDS011;2965;42.640;23.370;2023-06-14T16:32:46;14.77;;;10.13;;
5878;SDS011;2965;42.640;23.370;2023-06-14T16:35:11;9.90;;;9.00;;
5878;SDS011;2965;42.640;23.370;2023-06-14T16:37:37;9.37;;;8.60;;
5878;SDS011;2965;42.640;23.370;2023-06-14T16:40:02;9.80;;;8.90;;
5878;SDS011;2965;42.640;23.370;2023-06-14T16:42:28;9.83;;;8.73;;
5878;SDS011;2965;42.640;23.370;2023-06-14T16:44:54;9.27;;;8.47;;
5878;SDS011;2965;42.640;23.370;2023-06-14T16:47:19;15.50;;;9.90;;
5878;SDS011;2965;42.640;23.370;2023-06-14T16:49:45;10.93;;;9.83;;
5878;SDS011;2965;42.640;23.370;2023-06-14T16:52:10;10.27;;;9.30;;
5878;SDS011;2965;42.640;23.370;2023-06-14T16:54:36;11.83;;;10.03;;
5878;SDS011;2965;42.640;23.370;2023-06-14T16:57:01;10.97;;;9.70;;
5878;SDS011;2965;42.640;23.370;2023-06-14T16:59:27;11.83;;;10.03;;
5878;SDS011;2965;42.640;23.370;2023-06-14T17:01:52;10.27;;;9.27;;
5878;SDS011;2965;42.640;23.370;2023-06-14T17:04:18;10.13;;;9.17;;
5878;SDS011;2965;42.640;23.370;2023-06-14T17:06:43;9.13;;;8.30;;
5878;SDS011;2965;42.640;23.370;2023-06-14T17:09:08;8.23;;;7.73;;
5878;SDS011;2965;42.640;23.370;2023-06-14T17:11:34;13.93;;;10.97;;
5878;SDS011;2965;42.640;23.370;2023-06-14T17:14:00;11.00;;;10.00;;
5878;SDS011;2965;42.640;23.370;2023-06-14T17:16:26;9.07;;;8.27;;
5878;SDS011;2965;42.640;23.370;2023-06-14T17:18:51;9.90;;;9.00;;
5878;SDS011;2965;42.640;23.370;2023-06-14T17:21:17;12.40;;;10.13;;
5878;SDS011;2965;42.640;23.370;2023-06-14T17:23:42;10.83;;;9.37;;
5878;SDS011;2965;42.640;23.370;2023-06-14T17:26:08;9.13;;;8.23;;
5878;SDS011;2965;42.640;23.370;2023-06-14T17:28:34;9.90;;;8.90;;
5878;SDS011;2965;42.640;23.370;2023-06-14T17:31:00;10.00;;;8.07;;
5878;SDS011;2965;42.640;23.370;2023-06-14T17:33:26;10.63;;;7.47;;
5878;SDS011;2965;42.640;23.370;2023-06-14T17:35:52;8.73;;;7.83;;
5878;SDS011;2965;42.640;23.370;2023-06-14T17:38:17;19.57;;;9.93;;
5878;SDS011;2965;42.640;23.370;2023-06-14T17:40:42;10.43;;;8.50;;
5878;SDS011;2965;42.640;23.370;2023-06-14T17:43:08;7.23;;;6.63;;
5878;SDS011;2965;42.640;23.370;2023-06-14T17:45:33;6.83;;;6.40;;
5878;SDS011;2965;42.640;23.370;2023-06-14T17:47:58;7.17;;;6.30;;
5878;SDS011;2965;42.640;23.370;2023-06-14T17:50:25;8.63;;;7.07;;
5878;SDS011;2965;42.640;23.370;2023-06-14T17:52:51;8.60;;;7.80;;
5878;SDS011;2965;42.640;23.370;2023-06-14T17:55:16;8.07;;;7.47;;
5878;SDS011;2965;42.640;23.370;2023-06-14T17:57:41;10.27;;;8.03;;
5878;SDS011;2965;42.640;23.370;2023-06-14T18:00:07;10.10;;;8.13;;
5878;SDS011;2965;42.640;23.370;2023-06-14T18:02:33;9.50;;;8.43;;
5878;SDS011;2965;42.640;23.370;2023-06-14T18:04:58;10.93;;;9.80;;
5878;SDS011;2965;42.640;23.370;2023-06-14T18:07:24;10.33;;;9.10;;
5878;SDS011;2965;42.640;23.370;2023-06-14T18:09:49;10.30;;;9.30;;
5878;SDS011;2965;42.640;23.370;2023-06-14T18:12:15;12.90;;;9.20;;
5878;SDS011;2965;42.640;23.370;2023-06-14T18:14:40;12.33;;;9.20;;
5878;SDS011;2965;42.640;23.370;2023-06-14T18:17:05;9.23;;;8.47;;
5878;SDS011;2965;42.640;23.370;2023-06-14T18:19:31;9.80;;;9.00;;
5878;SDS011;2965;42.640;23.370;2023-06-14T18:21:56;11.00;;;8.60;;
5878;SDS011;2965;42.640;23.370;2023-06-14T18:24:22;8.80;;;8.10;;
5878;SDS011;2965;42.640;23.370;2023-06-14T18:26:47;15.00;;;9.43;;
5878;SDS011;2965;42.640;23.370;2023-06-14T18:29:13;10.43;;;9.23;;
5878;SDS011;2965;42.640;23.370;2023-06-14T18:31:40;9.77;;;8.50;;
5878;SDS011;2965;42.640;23.370;2023-06-14T18:34:06;8.10;;;7.60;;
5878;SDS011;2965;42.640;23.370;2023-06-14T18:36:32;8.03;;;7.43;;
5878;SDS011;2965;42.640;23.370;2023-06-14T18:38:58;11.00;;;9.43;;
5878;SDS011;2965;42.640;23.370;2023-06-14T18:41:24;10.97;;;8.93;;
5878;SDS011;2965;42.640;23.370;2023-06-14T18:43:49;11.63;;;10.03;;
5878;SDS011;2965;42.640;23.370;2023-06-14T18:46:15;19.67;;;11.10;;
5878;SDS011;2965;42.640;23.370;2023-06-14T18:48:40;12.73;;;11.40;;
5878;SDS011;2965;42.640;23.370;2023-06-14T18:51:08;17.20;;;11.50;;
5878;SDS011;2965;42.640;23.370;2023-06-14T18:53:33;13.30;;;11.10;;
5878;SDS011;2965;42.640;23.370;2023-06-14T18:55:59;11.03;;;10.13;;
5878;SDS011;2965;42.640;23.370;2023-06-14T18:58:24;16.10;;;12.10;;
5878;SDS011;2965;42.640;23.370;2023-06-14T19:00:50;12.60;;;11.30;;
5878;SDS011;2965;42.640;23.370;2023-06-14T19:49:39;11.37;;;8.03;;
5878;SDS011;2965;42.640;23.370;2023-06-14T19:52:04;9.00;;;6.43;;
5878;SDS011;2965;42.640;23.370;2023-06-14T19:54:30;8.50;;;6.37;;
5878;SDS011;2965;42.640;23.370;2023-06-14T19:56:56;6.83;;;6.33;;
5878;SDS011;2965;42.640;23.370;2023-06-14T19:59:21;6.17;;;5.77;;
5878;SDS011;2965;42.640;23.370;2023-06-14T20:01:47;8.97;;;6.13;;
5878;SDS011;2965;42.640;23.370;2023-06-14T20:04:12;11.63;;;6.93;;
5878;SDS011;2965;42.640;23.370;2023-06-14T20:06:37;17.47;;;5.90;;
5878;SDS011;2965;42.640;23.370;2023-06-14T20:09:03;10.60;;;6.07;;
5878;SDS011;2965;42.640;23.370;2023-06-14T20:11:36;9.83;;;5.67;;
5878;SDS011;2965;42.640;23.370;2023-06-14T20:14:01;14.93;;;7.53;;
5878;SDS011;2965;42.640;23.370;2023-06-14T20:16:27;14.83;;;6.80;;
5878;SDS011;2965;42.640;23.370;2023-06-14T20:18:52;6.50;;;6.00;;
5878;SDS011;2965;42.640;23.370;2023-06-14T20:21:18;10.70;;;8.67;;
5878;SDS011;2965;42.640;23.370;2023-06-14T20:23:43;9.90;;;7.23;;
5878;SDS011;2965;42.640;23.370;2023-06-14T20:26:09;9.23;;;7.60;;
5878;SDS011;2965;42.640;23.370;2023-06-14T20:28:34;12.53;;;7.23;;
5878;SDS011;2965;42.640;23.370;2023-06-14T20:31:00;8.17;;;6.70;;
5878;SDS011;2965;42.640;23.370;2023-06-14T20:33:25;6.80;;;6.20;;
5878;SDS011;2965;42.640;23.370;2023-06-14T20:35:50;6.57;;;6.07;;
5878;SDS011;2965;42.640;23.370;2023-06-14T20:38:16;8.90;;;6.50;;
5878;SDS011;2965;42.640;23.370;2023-06-14T20:40:42;9.37;;;7.17;;
5878;SDS011;2965;42.640;23.370;2023-06-14T20:43:07;6.80;;;6.20;;
5878;SDS011;2965;42.640;23.370;2023-06-14T20:45:36;7.20;;;6.50;;
5878;SDS011;2965;42.640;23.370;2023-06-14T20:48:01;9.60;;;7.80;;
5878;SDS011;2965;42.640;23.370;2023-06-14T20:50:27;7.90;;;7.10;;
5878;SDS011;2965;42.640;23.370;2023-06-14T20:52:52;8.03;;;6.30;;
5878;SDS011;2965;42.640;23.370;2023-06-14T20:55:18;7.67;;;6.60;;
5878;SDS011;2965;42.640;23.370;2023-06-14T20:57:44;7.53;;;5.80;;
